46U

Alpine Airport

Alpine, Wyoming, USA
METAR K46U 200020Z AUTO 31013G23KT 10SM CLR 21/M02 A2983 RMK A01
Observed Flight Rules
Sep-20 @ 00:20 UTC (22 minutes ago) Visual Flight Rules
Wind Visibility Clouds
310° at 13 knots
 Gusting to 23 knots
10 miles
  • Clear skies
Temperatures Readings
Current 21°C / 70°F
Dewpoint -2°C / 28°F
Humidity 21%
Altimeter 29.83" Hg
Pressure 1010 hPa
Elevation 1717
METAR K46U 200020Z AUTO 31013G23KT 10SM CLR 21/M02 A2983 RMK A01
Observed Flight Rules
Sep-20 @ 00:20 UTC
(22 minutes ago)
VFR
Wind Visibility
310° at 13 knots
 Gusting to 23 knots
10 miles
Clouds
  • Clear skies
Temperature Dewpoint
21°C / 70°F -2°C / 28°F
Humidity Altimeter Pressure
21% 29.83" Hg 1010 hPa